Terminal Aerodrome Forecast
Issued by NWS

Home | Current Version | Previous Version | Text Only | Print | Product List | Glossary On
Versions: 1 2 3 4 5 6 7 8 9 10 11 12 13 14 15
000
FTUS42 TJSJ 251800 AAA
TAFJBQ
TAF AMD
TJBQ 251812Z 2518/2618 08022G26KT P6SM SCT024
     FM252100 09012G18KT P6SM SCT025
     FM261400 08013KT P6SM SCT025=

USA.gov is the U.S. government's official web portal to all federal, state and local government web resources and services.